Aviation Digital Data Service (ADDS)

Output produced by METARs form (0244 UTC 24 July 2017)
found at http://www.aviationweather.gov/adds/metars/
 
TAF MMCS 231738Z 2318/2418 00000KT P6SM SCT030 
     FM232100 13015KT P6SM SCT030CB BKN200 
     TEMPO 2323/2403 5SM TSRA BKN030CB BKN100 OVC200 
     FM240300 14005KT P6SM SCT030 BKN200 
     FM241700 14010KT P6SM SCT200
       
TAF MMAA 232315Z 2400/2506 00000KT P6SM SCT015CB BKN090 OVC300 TX32/2419Z TN26/2412Z 
     TEMPO 2400/2404 5SM RA VC TS 
     FM240400 00000KT P6SM SCT015 BKN090 
     TEMPO 2410/2414 5SM TSRA SCT015CB OVC090 
     FM241800 14010KT P6SM BKN090 BKN300 
     PROB40 2423/2503 5SM RA BKN015 BKN090 OVC300
       
TAF MMAN 231738Z 2318/2418 15010KT P6SM SCT030 
     PROB40 2400/2404 5SM RA SCT030CB BKN200 
     FM240400 12006KT P6SM SCT200 
     TEMPO 2410/2414 5SM HZ BKN015
       
TAF MMAS 231637Z 2318/2418 07005KT P6SM SCT030 
     FM232100 09015KT P6SM SCT030CB SCT220 
     FM240100 00000KT P6SM SCT220 
     BECMG 2412/2413 6SM HZ SCT030
       
TAF MMBT 231621Z 2318/2418 00000KT 6SM HZ SCT020 BKN220 
     FM232100 18012KT 6SM HZ SCT030CB SCT100 BKN220 
     TEMPO 2322/2401 VC SH 
     FM240300 00000KT P6SM SCT100 BKN220 
     BECMG 2412/2413 6SM HZ BKN220
       
TAF MMCB 231621Z 2318/2418 21005KT P6SM BKN015 BKN100 
     FM232100 19010KT P6SM SCT020CB BKN100 
     TEMPO 2323/2403 6SM -TSRA BKN020CB 
     FM240400 00000KT P6SM BKN100 BKN220 
     FM241200 00000KT 6SM HZ SCT015 BKN100
       
TAF AMD MMCE 232229Z 2322/2418 36010KT 6SM HZ SCT015CB SCT090 BKN300 
     TEMPO 2323/2403 5SM TSRA BKN015CB 
     FM240500 12008KT P6SM SCT015 BKN090 
     FM241200 12012KT 6SM HZ SCT015 SCT090
       
TAF MMCL 231717Z 2318/2418 01010KT P6SM SCT020 BKN100 BKN230 
     FM240000 24010KT P6SM SCT020CB BKN100 BKN230 
     TEMPO 2400/2404 5SM TSRA BKN020CB OVC100 
     FM240400 24005KT P6SM SCT020 BKN100 
     PROB40 2408/2412 5SM RA 
     FM241600 24006KT P6SM SCT100 BKN230
       
TAF AMD MMCM 240137Z 2402/2418 12008G18KT 3SM TSRA OVC015CB 
     FM240200 12010KT 5SM -RA BKN015CB OVC080 
     FM240400 15005KT 6SM HZ BKN020 BKN080 
     FM241200 12010KT 6SM HZ SCT020 BKN080 
     BECMG 2417/2418 BKN020CB BKN080
       
TAF AMD MMCN 231855Z 2319/2418 11015KT P6SM BKN030 
     FM232100 24015KT P6SM SCT030 BKN220 
     BECMG 2401/2402 19006KT 
     FM240800 12005KT P6SM SCT020CB BKN100 
     PROB40 2410/2414 6SM TSRA BKN020CB 
     FM241400 00000KT P6SM SCT020 BKN100
       
TAF AMD MMCP 240139Z 2402/2418 18008KT 6SM -RA SCT070 BKN120 
     FM240300 18006KT P6SM BKN120 
     FM241200 16008KT 6SM HZ SCT030 SCT100
       
TAF MMCS 231738Z 2318/2418 00000KT P6SM SCT030 
     FM232100 13015KT P6SM SCT030CB BKN200 
     TEMPO 2323/2403 5SM TSRA BKN030CB BKN100 OVC200 
     FM240300 14005KT P6SM SCT030 BKN200 
     FM241700 14010KT P6SM SCT200
       
TAF MMCU 231738Z 2318/2418 09010KT P6SM BKN030 BKN080 OVC200 
     TEMPO 2321/2401 5SM TSRA BKN030CB OVC080 
     FM240100 12010KT 5SM RA BKN030 OVC080 
     FM240600 00000KT P6SM SCT030 BKN080 
     FM241700 14010KT P6SM SCT030
       
TAF MMCV 231724Z 2318/2418 17018KT P6SM SCT020 SCT220 
     BECMG 2320/2321 17020KT 
     FM240200 16015KT P6SM SCT220 
     BECMG 2405/2406 16012KT 
     FM241200 16015KT 6SM HZ SCT015
       
TAF MMCZ 232326Z 2400/2506 06010KT P6SM SCT015 BKN250 
     BECMG 2402/2403 08006KT 
     FM240600 09010KT P6SM SCT015CB BKN080 
     TEMPO 2406/2410 5SM TSRA BKN015 
     FM241200 12010KT 6SM HZ SCT015 BKN250 
     FM241800 09012KT P6SM SCT015CB BKN080 
     PROB40 2419/2423 5SM TSRA BKN015CB 
     FM250100 09008KT P6SM SCT015 SCT080 BKN250
       
TAF MMDO 231653Z 2318/2418 07005KT P6SM SCT020 SCT220 
     FM232100 08015KT P6SM BKN025CB BKN090 
     TEMPO 2322/2402 4SM TSRA 
     FM240300 07006KT 6SM -TSRA BKN025CB OVC090 
     FM240600 00000KT P6SM SCT025 BKN090 
     BECMG 2412/2413 SCT090
       
TAF AMD MMEP 232336Z 2400/2418 30004KT 1/2SM +RA OVC015CB 
     FM240000 32006KT 3SM TSRA BKN015CB OVC070 
     FM240200 36006KT 5SM -TSRA 
     FM240600 00000KT 6SM HZ SCT015 BKN080 
     FM241000 00000KT 3SM BR HZ SCT015 BKN250 
     FM241500 00000KT 6SM HZ SCT020 BKN250
       
TAF MMGL 232330Z 2400/2506 00000KT 6SM HZ SCT020 TX27/2421Z TN17/2412Z 
     TEMPO 2400/2404 5SM RA VC TS SCT020CB 
     FM240400 24006KT P6SM SCT020CB BKN080 BKN300 
     PROB40 2406/2410 5SM TSRA BKN020CB OVC080 
     FM241000 00000KT P6SM SCT020 BKN300 
     FM241700 24010KT P6SM SCT300 
     BECMG 2421/2422 BKN030CB BKN080 BKN300 
     FM250300 00000KT 6SM HZ SCT030 BKN300
       
TAF MMGM 231653Z 2318/2418 21005KT P6SM BKN100 
     FM232100 23012KT P6SM SCT020 BKN100 
     BECMG 2401/2402 00000KT 
     FM240800 00000KT P6SM SCT020CB BKN100 
     FM241400 00000KT P6SM BKN100
       
TAF MMHO 231717Z 2318/2418 11006KT P6SM BKN080 BKN200 
     FM232100 24010KT P6SM SCT030CB BKN080 BKN200 
     TEMPO 2322/2402 5SM RA VC TS BKN030CB BKN080 OVC200 
     FM240200 24006KT P6SM BKN080 BKN200 
     FM241600 22010KT P6SM SCT080 BKN200
       
TAF MMIA 231637Z 2318/2418 24008KT P6SM SCT020 SCT120 
     FM232000 24012KT P6SM VC SH BKN020CB BKN100 
     TEMPO 2321/2401 2SM TSRA OVC010CB 
     FM240200 24006KT 6SM -RA SCT020CB BKN100 
     FM240600 00000KT P6SM SCT020 BKN080 
     FM241200 00000KT 6SM HZ SCT015 BKN100
       
TAF MMIO 231738Z 2318/2418 00000KT P6SM SKC 
     FM232100 34010KT P6SM SCT030 
     PROB40 2400/2404 5SM RA VC TS SCT030CB BKN200 
     FM240400 00000KT P6SM SCT200 
     FM241700 34010KT P6SM SKC
       
TAF MMLM 231653Z 2318/2418 13010KT P6SM SCT030 SCT100 BKN220 
     FM232100 24012KT P6SM SCT030 BKN220 
     FM240200 16006KT P6SM SCT030CB BKN100 
     PROB40 2404/2408 6SM TSRA BKN030CB 
     FM241000 00000KT P6SM SCT100 BKN220
       
TAF MMLO 231637Z 2318/2418 09005KT P6SM SCT030 SCT220 
     FM232100 07012KT P6SM SCT030CB BKN100 
     TEMPO 2322/2402 6SM -RA 
     FM240200 00000KT P6SM SCT100 SCT220 
     BECMG 2412/2413 6SM HZ SCT220
       
TAF MMLP 231717Z 2318/2418 27006KT P6SM SKC 
     FM232200 26010KT P6SM SCT030 BKN220 
     PROB40 2400/2404 5SM RA SCT030CB BKN100 BKN220 
     FM240400 22005KT P6SM SCT100 BKN220 
     FM241700 27010KT P6SM SCT220
       
TAF MMLT 231653Z 2318/2418 00000KT P6SM SCT100 BKN240 
     FM232000 17012KT P6SM SCT040 BKN240 
     BECMG 2401/2402 00000KT BKN240 
     FM241600 19005KT P6SM SCT240
       
TAF MMMA 231724Z 2318/2418 16015KT 6SM HZ SCT020 
     BECMG 2320/2321 16015G25KT 
     FM240200 16008KT P6SM SCT220 
     FM241200 16010KT 6SM HZ BKN015 
     FM241500 16015KT 6SM HZ SCT015
       
TAF MMMD 232326Z 2400/2506 03010KT 6SM HZ SCT020CB OVC300 TX34/2422Z TN25/2412Z 
     TEMPO 2400/2403 6SM -TSRA BKN020CB 
     FM240400 04008KT P6SM SCT020 BKN300 
     BECMG 2405/2406 09006KT BKN300 
     FM241200 12010KT 6SM HZ BKN020 BKN300 
     FM242000 03012KT P6SM BKN025CB BKN300 
     PROB40 2422/2502 5SM TSRA 
     FM250300 04005KT P6SM SCT025 BKN090
       
TAF AMD MMML 231950Z 2320/2418 15015KT 4SM BLDU SCT100 SCT200 
     FM232300 15012KT 6SM HZ BKN120 BKN200 
     TEMPO 2323/2402 3SM BLDU 
     FM240200 26008KT P6SM SCT200 
     BECMG 2417/2418 24010KT
       
TAF AMD MMMM 240130Z 2401/2506 20005KT 2 1/2SM -RA BKN030CB BKN100 
     BECMG 2403/2404 5SM -RA 
     FM240600 00000KT 6SM -RA BKN030 BKN100 
     FM241000 00000KT 5SM HZ BKN020 BKN080 
     TEMPO 2411/2414 3SM -RA BR 
     FM241600 00000KT 6SM HZ SCT020 BKN080 
     FM242000 18010KT 6SM HZ VC SH BKN030CB BKN080 
     PROB40 2421/2501 3SM TSRA 
     FM250200 16008KT 5SM -TSRA BKN030CB OVC080
       
TAF MMMT 231712Z 2318/2418 01010KT P6SM SCT020 
     BECMG 2320/2321 01015KT 
     FM240100 36008KT P6SM SCT020 BKN300 
     PROB40 2406/2410 6SM -TSRA BKN020CB 
     FM241200 34006KT 6SM HZ SCT015 BKN080
       
TAF MMMX 232315Z 2400/2506 22008KT 5SM -RA BKN020CB OVC080 TX23/2421Z TN14/2412Z 
     FM240400 00000KT P6SM SCT020 BKN200 
     FM241900 07010KT P6SM BKN020 BKN200 
     TEMPO 2421/2424 5SM TSRA BKN020CB 
     FM250300 12005KT P6SM SCT020 BKN090
       
TAF MMMY 232329Z 2400/2506 14008KT P6SM SCT040 TX38/2422Z TN23/2413Z 
     BECMG 2402/2403 14005KT SCT250 
     FM241000 12005KT 5SM HZ BKN015 
     FM241500 12006KT 6SM HZ SCT020 
     FM242000 14015KT P6SM SCT040 
     BECMG 2502/2503 12008KT SCT250
       
TAF MMMZ 232310Z 2400/2506 26008KT P6SM SCT020 BKN230 TX33/2422Z TN26/2413Z 
     TEMPO 2400/2403 VC SH 
     FM240400 32005KT P6SM SCT020CB BKN090 
     TEMPO 2406/2410 6SM TSRA BKN020CB 
     FM241300 04005KT P6SM SCT020 SCT090 
     FM242000 24012KT P6SM SCT020 BKN230 
     FM250100 27008KT P6SM SCT020CB BKN090 
     PROB40 2502/2506 5SM TSRA BKN020CB
       
TAF MMNL 231724Z 2318/2418 14010KT P6SM SCT250 
     BECMG 2320/2321 14015KT 
     FM240200 14008KT P6SM SCT250 
     FM241200 14001KT 6SM HZ SCT015 SCT250
       
TAF AMD MMOX 240133Z 2402/2418 15006KT 3SM -RA BKN010CB OVC080 
     FM240300 00000KT 5SM -RA BKN015 OVC080 
     FM240600 00000KT 6SM HZ BKN020 BKN080 
     FM241600 16005KT 6SM HZ SCT020 BKN080
       
TAF MMPA 231724Z 2318/2418 34005KT 5SM HZ BKN020 BKN280 
     FM232100 09012KT 6SM HZ BKN020CB BKN080 
     TEMPO 2322/2402 5SM TSRA 
     FM240300 00000KT 6SM HZ SCT020 BKN080 
     FM241000 00000KT 3SM BR HZ BKN015 
     FM241500 07005KT 5SM HZ BKN020 BKN280
       
TAF MMPB 231621Z 2318/2418 16006KT 6SM HZ SCT020 BKN220 
     FM232100 16015KT P6SM VC SH BKN020CB BKN080 
     TEMPO 2322/2402 3SM TSRA 
     FM240300 32005KT P6SM -RA BKN020 BKN080 
     FM240600 00000KT P6SM SCT020 BKN080 
     TEMPO 2411/2415 3SM BR HZ BKN015
       
TAF MMPG 231724Z 2318/2418 12010KT P6SM SCT030 SCT250 
     BECMG 2320/2321 12015KT 
     FM240200 12006KT P6SM SCT250 
     FM241200 12010KT 6SM HZ SCT250
       
TAF MMPN 231637Z 2318/2418 15006KT P6SM SCT030 BKN280 
     FM232000 19012KT P6SM VC SH BKN030CB BKN090 
     TEMPO 2321/2401 3SM TSRA 
     FM240200 19005KT 6SM -RA SCT030CB BKN090 
     FM240600 00000KT P6SM SCT090 BKN280 
     BECMG 2412/2413 6SM HZ
       
TAF MMPQ 231712Z 2318/2418 09012KT 4SM HZ SCT040 SCT080 BKN220 
     FM232100 09015KT 5SM HZ SCT030CB BKN080 
     TEMPO 2322/2402 5SM TSRA BKN030BC 
     FM240300 12008KT 4SM HZ SCT020 BKN080 
     FM241200 16010KT 5SM HZ SCT030 SCT080
       
TAF MMPR 232330Z 2400/2506 22006KT P6SM SCT025CB SCT080 BKN200 TX32/2420Z TN24/2412Z 
     TEMPO 2400/2404 5SM RA VC TS 
     FM240400 00000KT 5SM -RA SCT020CB BKN100 BKN220 
     FM240600 00000KT P6SM SCT100 BKN220 
     FM241900 30010KT P6SM SCT220 
     BECMG 2421/2422 SCT020 BKN100 BKN220 
     PROB40 2500/2504 5SM RA SCT020CB BKN100 OVC220
       
TAF MMPS 231621Z 2318/2418 06008KT 6SM HZ SCT020 BKN220 
     FM232100 12012KT P6SM SCT020CB BKN080 
     TEMPO 2322/2402 VC SH 
     FM240300 00000KT P6SM SCT080 BKN220 
     BECMG 2412/2413 6SM HZ BKN220
       
TAF MMQT 231637Z 2318/2418 08006KT 5SM HZ BKN020 BKN220 
     FM232000 05012KT 6SM HZ SCT020 SCT100 BKN220 
     FM240200 00000KT P6SM SCT100 BKN220 
     BECMG 2412/2413 5SM HZ SCT015 BKN220
       
TAF MMRX 231724Z 2318/2418 18015KT P6SM SCT100 
     BECMG 2320/2321 16015G25KT SCT040 
     FM240200 14010KT P6SM SCT220 
     BECMG 2405/2406 14008KT 
     FM241200 14010KT 6SM HZ BKN015 
     FM241500 14015KT P6SM SCT020
       
TAF MMSD 231653Z 2318/2418 13005KT P6SM SCT260 
     BECMG 2320/2321 13015KT 
     FM240200 29005KT P6SM SKC 
     BECMG 2412/2413 34005KT
       
TAF MMSL 231653Z 2318/2418 16006KT P6SM SCT250 
     BECMG 2320/2321 25015KT 
     FM240200 29008KT P6SM SCT250 
     BECMG 2413/2414 12005KT
       
TAF MMSP 232330Z 2400/2506 06013KT P6SM SCT025 TX26/2421Z TN13/2412Z 
     FM240300 10006KT P6SM SCT020 
     TEMPO 2410/2414 BKN015 
     FM241900 08015KT P6SM SCT020 
     BECMG 2420/2421 BKN020 
     TEMPO 2423/2503 5SM RA
       
TAF MMTC 231738Z 2318/2418 00000KT P6SM SCT025 SCT200 
     FM232200 06010KT P6SM SCT030CB BKN200 
     TEMPO 2323/2403 5SM RA VC TS 
     FM240300 06006KT P6SM SCT030 BKN200 
     FM241700 06010KT P6SM SCT200
       
TAF MMTG 231727Z 2318/2418 09008KT P6SM SCT015 SCT300 
     FM232100 34010KT P6SM BKN020CB BKN300 
     TEMPO 2322/2402 5SM TSRA 
     FM240200 34005KT P6SM SCT020 BKN300 
     TEMPO 2411/2415 5SM HZ BKN015
       
TAF MMTJ 232310Z 2400/2506 30012KT P6SM SCT100 SCT220 TX26/2422Z TN18/2413Z 
     BECMG 2402/2403 30006KT SCT220 
     FM240800 00000KT 6SM HZ SCT015 
     TEMPO 2410/2414 3SM BR HZ BKN010 
     FM241500 25005KT 6SM HZ SCT015 BKN220 
     BECMG 2420/2421 27012KT BKN220 
     FM250100 27006KT P6SM SCT220
       
TAF MMTM 231635Z 2318/2418 20010KT P6SM SCT010 
     TEMPO 2320/2324 BKN015 
     FM240200 14006KT P6SM SCT015 
     FM241800 12010KT P6SM SCT020
       
TAF MMTO 232315Z 2400/2506 00000KT 3SM -RA HZ BKN015CB OVC070 TX21/2419Z TN08/2412Z 
     FM240300 00000KT 4SM HZ SCT015 BKN070 BKN200 
     TEMPO 2410/2414 2SM BR BKN010 
     FM241600 14006KT 5SM HZ SCT015 SCT200 
     FM241900 14010KT P6SM BKN015 BKN070 BKN200 
     TEMPO 2421/2424 4SM TSRA BKN015CB OVC070 
     FM250200 00000KT 5SM HZ SCT015 BKN070
       
TAF MMTP 232326Z 2400/2506 28006KT P6SM SCT040CB SCT090 BKN250 
     TEMPO 2401/2405 5SM TSRA BKN030CB 
     FM240600 00000KT P6SM SCT100 BKN250 
     FM241800 24006KT P6SM SCT030 BKN250 
     FM242100 24012KT P6SM SCT030CB BKN250 
     PROB40 2423/2503 VC SH 
     FM250400 29005KT P6SM SCT030 BKN100
       
TAF MMUN 232326Z 2400/2506 04005KT P6SM SCT015 BKN280 TX32/2421Z TN26/2412Z 
     BECMG 2402/2403 09005KT 
     FM241200 12010KT 6SM HZ BKN015 BKN250 
     FM241800 12012KT P6SM BKN015CB BKN080 
     PROB40 2418/2423 5SM TSRA 
     FM250100 12008KT P6SM SCT015 SCT080 BKN250
       
TAF MMVA 231712Z 2318/2418 09008KT 6SM HZ SCT020 
     FM232100 12012KT 6SM HZ SCT020CB SCT080 
     TEMPO 2323/2403 5SM TSRA BKN020CB 
     FM240300 07008KT 6SM HZ SCT020 BKN080 
     BECMG 2405/2406 12006KT 
     FM241000 12006KT 5SM HZ BKN015 
     FM241500 12010KT 6SM HZ SCT015
       
TAF MMVR 231635Z 2318/2418 06010KT 6SM HZ SCT015 SCT080 BKN250 TX32/2320Z TN24/2412Z 
     FM240200 34005KT P6SM SCT015 BKN250 
     TEMPO 2411/2415 BKN015
       
TAF MMZC 232330Z 2400/2506 09010G20KT P6SM SCT040 SCT200 TX26/2421Z TN13/2412Z 
     FM240400 14006KT P6SM SCT030 SCT240 
     FM241900 08010KT P6SM SCT030 BKN240 
     FM250200 12006KT P6SM SCT240
       
TAF MMZH 231621Z 2318/2418 24006KT P6SM SCT020 BKN080 
     FM232100 24012KT P6SM SCT020CB BKN080 
     TEMPO 2322/2402 6SM -TSRA BKN020CB 
     FM240300 00000KT P6SM SCT020 BKN080 
     BECMG 2412/2413 6SM HZ SCT080 BKN250
       
TAF MMZO 231700Z 2318/2418 00000KT P6SM SCT020 SCT210 
     FM232100 24010KT P6SM SCT020CB BKN210 
     TEMPO 2322/2402 2SM TSRA BKN015CB OVC070 
     FM240200 34006KT 5SM RA SCT020CB OVC080 
     FM240600 00000KT P6SM SCT020 BKN080 BKN200 
     PROB40 2410/2414 5SM RA SCT020CB BKN080
       
TAF MMAA 232315Z 2400/2506 00000KT P6SM SCT015CB BKN090 OVC300 TX32/2419Z TN26/2412Z 
     TEMPO 2400/2404 5SM RA VC TS 
     FM240400 00000KT P6SM SCT015 BKN090 
     TEMPO 2410/2414 5SM TSRA SCT015CB OVC090 
     FM241800 14010KT P6SM BKN090 BKN300 
     PROB40 2423/2503 5SM RA BKN015 BKN090 OVC300
       
TAF MMAN 231738Z 2318/2418 15010KT P6SM SCT030 
     PROB40 2400/2404 5SM RA SCT030CB BKN200 
     FM240400 12006KT P6SM SCT200 
     TEMPO 2410/2414 5SM HZ BKN015
       
TAF MMAS 231637Z 2318/2418 07005KT P6SM SCT030 
     FM232100 09015KT P6SM SCT030CB SCT220 
     FM240100 00000KT P6SM SCT220 
     BECMG 2412/2413 6SM HZ SCT030
       
TAF MMBT 231621Z 2318/2418 00000KT 6SM HZ SCT020 BKN220 
     FM232100 18012KT 6SM HZ SCT030CB SCT100 BKN220 
     TEMPO 2322/2401 VC SH 
     FM240300 00000KT P6SM SCT100 BKN220 
     BECMG 2412/2413 6SM HZ BKN220
       
TAF MMCB 231621Z 2318/2418 21005KT P6SM BKN015 BKN100 
     FM232100 19010KT P6SM SCT020CB BKN100 
     TEMPO 2323/2403 6SM -TSRA BKN020CB 
     FM240400 00000KT P6SM BKN100 BKN220 
     FM241200 00000KT 6SM HZ SCT015 BKN100
       
TAF AMD MMCE 232229Z 2322/2418 36010KT 6SM HZ SCT015CB SCT090 BKN300 
     TEMPO 2323/2403 5SM TSRA BKN015CB 
     FM240500 12008KT P6SM SCT015 BKN090 
     FM241200 12012KT 6SM HZ SCT015 SCT090
       
TAF MMCL 231717Z 2318/2418 01010KT P6SM SCT020 BKN100 BKN230 
     FM240000 24010KT P6SM SCT020CB BKN100 BKN230 
     TEMPO 2400/2404 5SM TSRA BKN020CB OVC100 
     FM240400 24005KT P6SM SCT020 BKN100 
     PROB40 2408/2412 5SM RA 
     FM241600 24006KT P6SM SCT100 BKN230
       
TAF AMD MMCM 240137Z 2402/2418 12008G18KT 3SM TSRA OVC015CB 
     FM240200 12010KT 5SM -RA BKN015CB OVC080 
     FM240400 15005KT 6SM HZ BKN020 BKN080 
     FM241200 12010KT 6SM HZ SCT020 BKN080 
     BECMG 2417/2418 BKN020CB BKN080
       
TAF AMD MMCN 231855Z 2319/2418 11015KT P6SM BKN030 
     FM232100 24015KT P6SM SCT030 BKN220 
     BECMG 2401/2402 19006KT 
     FM240800 12005KT P6SM SCT020CB BKN100 
     PROB40 2410/2414 6SM TSRA BKN020CB 
     FM241400 00000KT P6SM SCT020 BKN100
       
TAF AMD MMCP 240139Z 2402/2418 18008KT 6SM -RA SCT070 BKN120 
     FM240300 18006KT P6SM BKN120 
     FM241200 16008KT 6SM HZ SCT030 SCT100
       
TAF MMCS 231738Z 2318/2418 00000KT P6SM SCT030 
     FM232100 13015KT P6SM SCT030CB BKN200 
     TEMPO 2323/2403 5SM TSRA BKN030CB BKN100 OVC200 
     FM240300 14005KT P6SM SCT030 BKN200 
     FM241700 14010KT P6SM SCT200
       
TAF MMCU 231738Z 2318/2418 09010KT P6SM BKN030 BKN080 OVC200 
     TEMPO 2321/2401 5SM TSRA BKN030CB OVC080 
     FM240100 12010KT 5SM RA BKN030 OVC080 
     FM240600 00000KT P6SM SCT030 BKN080 
     FM241700 14010KT P6SM SCT030
       
TAF MMCV 231724Z 2318/2418 17018KT P6SM SCT020 SCT220 
     BECMG 2320/2321 17020KT 
     FM240200 16015KT P6SM SCT220 
     BECMG 2405/2406 16012KT 
     FM241200 16015KT 6SM HZ SCT015
       
TAF MMCZ 232326Z 2400/2506 06010KT P6SM SCT015 BKN250 
     BECMG 2402/2403 08006KT 
     FM240600 09010KT P6SM SCT015CB BKN080 
     TEMPO 2406/2410 5SM TSRA BKN015 
     FM241200 12010KT 6SM HZ SCT015 BKN250 
     FM241800 09012KT P6SM SCT015CB BKN080 
     PROB40 2419/2423 5SM TSRA BKN015CB 
     FM250100 09008KT P6SM SCT015 SCT080 BKN250
       
TAF MMDO 231653Z 2318/2418 07005KT P6SM SCT020 SCT220 
     FM232100 08015KT P6SM BKN025CB BKN090 
     TEMPO 2322/2402 4SM TSRA 
     FM240300 07006KT 6SM -TSRA BKN025CB OVC090 
     FM240600 00000KT P6SM SCT025 BKN090 
     BECMG 2412/2413 SCT090
       
TAF AMD MMEP 232336Z 2400/2418 30004KT 1/2SM +RA OVC015CB 
     FM240000 32006KT 3SM TSRA BKN015CB OVC070 
     FM240200 36006KT 5SM -TSRA 
     FM240600 00000KT 6SM HZ SCT015 BKN080 
     FM241000 00000KT 3SM BR HZ SCT015 BKN250 
     FM241500 00000KT 6SM HZ SCT020 BKN250
       
TAF MMGL 232330Z 2400/2506 00000KT 6SM HZ SCT020 TX27/2421Z TN17/2412Z 
     TEMPO 2400/2404 5SM RA VC TS SCT020CB 
     FM240400 24006KT P6SM SCT020CB BKN080 BKN300 
     PROB40 2406/2410 5SM TSRA BKN020CB OVC080 
     FM241000 00000KT P6SM SCT020 BKN300 
     FM241700 24010KT P6SM SCT300 
     BECMG 2421/2422 BKN030CB BKN080 BKN300 
     FM250300 00000KT 6SM HZ SCT030 BKN300
       
TAF MMGM 231653Z 2318/2418 21005KT P6SM BKN100 
     FM232100 23012KT P6SM SCT020 BKN100 
     BECMG 2401/2402 00000KT 
     FM240800 00000KT P6SM SCT020CB BKN100 
     FM241400 00000KT P6SM BKN100
       
TAF MMHO 231717Z 2318/2418 11006KT P6SM BKN080 BKN200 
     FM232100 24010KT P6SM SCT030CB BKN080 BKN200 
     TEMPO 2322/2402 5SM RA VC TS BKN030CB BKN080 OVC200 
     FM240200 24006KT P6SM BKN080 BKN200 
     FM241600 22010KT P6SM SCT080 BKN200
       
TAF MMIA 231637Z 2318/2418 24008KT P6SM SCT020 SCT120 
     FM232000 24012KT P6SM VC SH BKN020CB BKN100 
     TEMPO 2321/2401 2SM TSRA OVC010CB 
     FM240200 24006KT 6SM -RA SCT020CB BKN100 
     FM240600 00000KT P6SM SCT020 BKN080 
     FM241200 00000KT 6SM HZ SCT015 BKN100
       
TAF MMIO 231738Z 2318/2418 00000KT P6SM SKC 
     FM232100 34010KT P6SM SCT030 
     PROB40 2400/2404 5SM RA VC TS SCT030CB BKN200 
     FM240400 00000KT P6SM SCT200 
     FM241700 34010KT P6SM SKC
       
TAF MMLM 231653Z 2318/2418 13010KT P6SM SCT030 SCT100 BKN220 
     FM232100 24012KT P6SM SCT030 BKN220 
     FM240200 16006KT P6SM SCT030CB BKN100 
     PROB40 2404/2408 6SM TSRA BKN030CB 
     FM241000 00000KT P6SM SCT100 BKN220
       
TAF MMLO 231637Z 2318/2418 09005KT P6SM SCT030 SCT220 
     FM232100 07012KT P6SM SCT030CB BKN100 
     TEMPO 2322/2402 6SM -RA 
     FM240200 00000KT P6SM SCT100 SCT220 
     BECMG 2412/2413 6SM HZ SCT220
       
TAF MMLP 231717Z 2318/2418 27006KT P6SM SKC 
     FM232200 26010KT P6SM SCT030 BKN220 
     PROB40 2400/2404 5SM RA SCT030CB BKN100 BKN220 
     FM240400 22005KT P6SM SCT100 BKN220 
     FM241700 27010KT P6SM SCT220
       
TAF MMLT 231653Z 2318/2418 00000KT P6SM SCT100 BKN240 
     FM232000 17012KT P6SM SCT040 BKN240 
     BECMG 2401/2402 00000KT BKN240 
     FM241600 19005KT P6SM SCT240
       
TAF MMMA 231724Z 2318/2418 16015KT 6SM HZ SCT020 
     BECMG 2320/2321 16015G25KT 
     FM240200 16008KT P6SM SCT220 
     FM241200 16010KT 6SM HZ BKN015 
     FM241500 16015KT 6SM HZ SCT015
       
TAF MMMD 232326Z 2400/2506 03010KT 6SM HZ SCT020CB OVC300 TX34/2422Z TN25/2412Z 
     TEMPO 2400/2403 6SM -TSRA BKN020CB 
     FM240400 04008KT P6SM SCT020 BKN300 
     BECMG 2405/2406 09006KT BKN300 
     FM241200 12010KT 6SM HZ BKN020 BKN300 
     FM242000 03012KT P6SM BKN025CB BKN300 
     PROB40 2422/2502 5SM TSRA 
     FM250300 04005KT P6SM SCT025 BKN090
       
TAF AMD MMML 231950Z 2320/2418 15015KT 4SM BLDU SCT100 SCT200 
     FM232300 15012KT 6SM HZ BKN120 BKN200 
     TEMPO 2323/2402 3SM BLDU 
     FM240200 26008KT P6SM SCT200 
     BECMG 2417/2418 24010KT
       
TAF AMD MMMM 240130Z 2401/2506 20005KT 2 1/2SM -RA BKN030CB BKN100 
     BECMG 2403/2404 5SM -RA 
     FM240600 00000KT 6SM -RA BKN030 BKN100 
     FM241000 00000KT 5SM HZ BKN020 BKN080 
     TEMPO 2411/2414 3SM -RA BR 
     FM241600 00000KT 6SM HZ SCT020 BKN080 
     FM242000 18010KT 6SM HZ VC SH BKN030CB BKN080 
     PROB40 2421/2501 3SM TSRA 
     FM250200 16008KT 5SM -TSRA BKN030CB OVC080
       
TAF MMMT 231712Z 2318/2418 01010KT P6SM SCT020 
     BECMG 2320/2321 01015KT 
     FM240100 36008KT P6SM SCT020 BKN300 
     PROB40 2406/2410 6SM -TSRA BKN020CB 
     FM241200 34006KT 6SM HZ SCT015 BKN080
       
TAF MMMX 232315Z 2400/2506 22008KT 5SM -RA BKN020CB OVC080 TX23/2421Z TN14/2412Z 
     FM240400 00000KT P6SM SCT020 BKN200 
     FM241900 07010KT P6SM BKN020 BKN200 
     TEMPO 2421/2424 5SM TSRA BKN020CB 
     FM250300 12005KT P6SM SCT020 BKN090
       
TAF MMMY 232329Z 2400/2506 14008KT P6SM SCT040 TX38/2422Z TN23/2413Z 
     BECMG 2402/2403 14005KT SCT250 
     FM241000 12005KT 5SM HZ BKN015 
     FM241500 12006KT 6SM HZ SCT020 
     FM242000 14015KT P6SM SCT040 
     BECMG 2502/2503 12008KT SCT250
       
TAF MMMZ 232310Z 2400/2506 26008KT P6SM SCT020 BKN230 TX33/2422Z TN26/2413Z 
     TEMPO 2400/2403 VC SH 
     FM240400 32005KT P6SM SCT020CB BKN090 
     TEMPO 2406/2410 6SM TSRA BKN020CB 
     FM241300 04005KT P6SM SCT020 SCT090 
     FM242000 24012KT P6SM SCT020 BKN230 
     FM250100 27008KT P6SM SCT020CB BKN090 
     PROB40 2502/2506 5SM TSRA BKN020CB
       
TAF MMNL 231724Z 2318/2418 14010KT P6SM SCT250 
     BECMG 2320/2321 14015KT 
     FM240200 14008KT P6SM SCT250 
     FM241200 14001KT 6SM HZ SCT015 SCT250
       
TAF AMD MMOX 240133Z 2402/2418 15006KT 3SM -RA BKN010CB OVC080 
     FM240300 00000KT 5SM -RA BKN015 OVC080 
     FM240600 00000KT 6SM HZ BKN020 BKN080 
     FM241600 16005KT 6SM HZ SCT020 BKN080
       
TAF MMPA 231724Z 2318/2418 34005KT 5SM HZ BKN020 BKN280 
     FM232100 09012KT 6SM HZ BKN020CB BKN080 
     TEMPO 2322/2402 5SM TSRA 
     FM240300 00000KT 6SM HZ SCT020 BKN080 
     FM241000 00000KT 3SM BR HZ BKN015 
     FM241500 07005KT 5SM HZ BKN020 BKN280
       
TAF MMPB 231621Z 2318/2418 16006KT 6SM HZ SCT020 BKN220 
     FM232100 16015KT P6SM VC SH BKN020CB BKN080 
     TEMPO 2322/2402 3SM TSRA 
     FM240300 32005KT P6SM -RA BKN020 BKN080 
     FM240600 00000KT P6SM SCT020 BKN080 
     TEMPO 2411/2415 3SM BR HZ BKN015
       
TAF MMPG 231724Z 2318/2418 12010KT P6SM SCT030 SCT250 
     BECMG 2320/2321 12015KT 
     FM240200 12006KT P6SM SCT250 
     FM241200 12010KT 6SM HZ SCT250
       
TAF MMPN 231637Z 2318/2418 15006KT P6SM SCT030 BKN280 
     FM232000 19012KT P6SM VC SH BKN030CB BKN090 
     TEMPO 2321/2401 3SM TSRA 
     FM240200 19005KT 6SM -RA SCT030CB BKN090 
     FM240600 00000KT P6SM SCT090 BKN280 
     BECMG 2412/2413 6SM HZ
       
TAF MMPQ 231712Z 2318/2418 09012KT 4SM HZ SCT040 SCT080 BKN220 
     FM232100 09015KT 5SM HZ SCT030CB BKN080 
     TEMPO 2322/2402 5SM TSRA BKN030BC 
     FM240300 12008KT 4SM HZ SCT020 BKN080 
     FM241200 16010KT 5SM HZ SCT030 SCT080
       
TAF MMPR 232330Z 2400/2506 22006KT P6SM SCT025CB SCT080 BKN200 TX32/2420Z TN24/2412Z 
     TEMPO 2400/2404 5SM RA VC TS 
     FM240400 00000KT 5SM -RA SCT020CB BKN100 BKN220 
     FM240600 00000KT P6SM SCT100 BKN220 
     FM241900 30010KT P6SM SCT220 
     BECMG 2421/2422 SCT020 BKN100 BKN220 
     PROB40 2500/2504 5SM RA SCT020CB BKN100 OVC220
       
TAF MMPS 231621Z 2318/2418 06008KT 6SM HZ SCT020 BKN220 
     FM232100 12012KT P6SM SCT020CB BKN080 
     TEMPO 2322/2402 VC SH 
     FM240300 00000KT P6SM SCT080 BKN220 
     BECMG 2412/2413 6SM HZ BKN220
       
TAF MMQT 231637Z 2318/2418 08006KT 5SM HZ BKN020 BKN220 
     FM232000 05012KT 6SM HZ SCT020 SCT100 BKN220 
     FM240200 00000KT P6SM SCT100 BKN220 
     BECMG 2412/2413 5SM HZ SCT015 BKN220
       
TAF MMRX 231724Z 2318/2418 18015KT P6SM SCT100 
     BECMG 2320/2321 16015G25KT SCT040 
     FM240200 14010KT P6SM SCT220 
     BECMG 2405/2406 14008KT 
     FM241200 14010KT 6SM HZ BKN015 
     FM241500 14015KT P6SM SCT020
       
TAF MMSD 231653Z 2318/2418 13005KT P6SM SCT260 
     BECMG 2320/2321 13015KT 
     FM240200 29005KT P6SM SKC 
     BECMG 2412/2413 34005KT
       
TAF MMSL 231653Z 2318/2418 16006KT P6SM SCT250 
     BECMG 2320/2321 25015KT 
     FM240200 29008KT P6SM SCT250 
     BECMG 2413/2414 12005KT
       
TAF MMSP 232330Z 2400/2506 06013KT P6SM SCT025 TX26/2421Z TN13/2412Z 
     FM240300 10006KT P6SM SCT020 
     TEMPO 2410/2414 BKN015 
     FM241900 08015KT P6SM SCT020 
     BECMG 2420/2421 BKN020 
     TEMPO 2423/2503 5SM RA
       
TAF MMTC 231738Z 2318/2418 00000KT P6SM SCT025 SCT200 
     FM232200 06010KT P6SM SCT030CB BKN200 
     TEMPO 2323/2403 5SM RA VC TS 
     FM240300 06006KT P6SM SCT030 BKN200 
     FM241700 06010KT P6SM SCT200
       
TAF MMTG 231727Z 2318/2418 09008KT P6SM SCT015 SCT300 
     FM232100 34010KT P6SM BKN020CB BKN300 
     TEMPO 2322/2402 5SM TSRA 
     FM240200 34005KT P6SM SCT020 BKN300 
     TEMPO 2411/2415 5SM HZ BKN015
       
TAF MMTJ 232310Z 2400/2506 30012KT P6SM SCT100 SCT220 TX26/2422Z TN18/2413Z 
     BECMG 2402/2403 30006KT SCT220 
     FM240800 00000KT 6SM HZ SCT015 
     TEMPO 2410/2414 3SM BR HZ BKN010 
     FM241500 25005KT 6SM HZ SCT015 BKN220 
     BECMG 2420/2421 27012KT BKN220 
     FM250100 27006KT P6SM SCT220
       
TAF MMTM 231635Z 2318/2418 20010KT P6SM SCT010 
     TEMPO 2320/2324 BKN015 
     FM240200 14006KT P6SM SCT015 
     FM241800 12010KT P6SM SCT020
       
TAF MMTO 232315Z 2400/2506 00000KT 3SM -RA HZ BKN015CB OVC070 TX21/2419Z TN08/2412Z 
     FM240300 00000KT 4SM HZ SCT015 BKN070 BKN200 
     TEMPO 2410/2414 2SM BR BKN010 
     FM241600 14006KT 5SM HZ SCT015 SCT200 
     FM241900 14010KT P6SM BKN015 BKN070 BKN200 
     TEMPO 2421/2424 4SM TSRA BKN015CB OVC070 
     FM250200 00000KT 5SM HZ SCT015 BKN070
       
TAF MMTP 232326Z 2400/2506 28006KT P6SM SCT040CB SCT090 BKN250 
     TEMPO 2401/2405 5SM TSRA BKN030CB 
     FM240600 00000KT P6SM SCT100 BKN250 
     FM241800 24006KT P6SM SCT030 BKN250 
     FM242100 24012KT P6SM SCT030CB BKN250 
     PROB40 2423/2503 VC SH 
     FM250400 29005KT P6SM SCT030 BKN100
       
TAF MMUN 232326Z 2400/2506 04005KT P6SM SCT015 BKN280 TX32/2421Z TN26/2412Z 
     BECMG 2402/2403 09005KT 
     FM241200 12010KT 6SM HZ BKN015 BKN250 
     FM241800 12012KT P6SM BKN015CB BKN080 
     PROB40 2418/2423 5SM TSRA 
     FM250100 12008KT P6SM SCT015 SCT080 BKN250
       
TAF MMVA 231712Z 2318/2418 09008KT 6SM HZ SCT020 
     FM232100 12012KT 6SM HZ SCT020CB SCT080 
     TEMPO 2323/2403 5SM TSRA BKN020CB 
     FM240300 07008KT 6SM HZ SCT020 BKN080 
     BECMG 2405/2406 12006KT 
     FM241000 12006KT 5SM HZ BKN015 
     FM241500 12010KT 6SM HZ SCT015
       
TAF MMVR 231635Z 2318/2418 06010KT 6SM HZ SCT015 SCT080 BKN250 TX32/2320Z TN24/2412Z 
     FM240200 34005KT P6SM SCT015 BKN250 
     TEMPO 2411/2415 BKN015
       
TAF MMZC 232330Z 2400/2506 09010G20KT P6SM SCT040 SCT200 TX26/2421Z TN13/2412Z 
     FM240400 14006KT P6SM SCT030 SCT240 
     FM241900 08010KT P6SM SCT030 BKN240 
     FM250200 12006KT P6SM SCT240
       
TAF MMZH 231621Z 2318/2418 24006KT P6SM SCT020 BKN080 
     FM232100 24012KT P6SM SCT020CB BKN080 
     TEMPO 2322/2402 6SM -TSRA BKN020CB 
     FM240300 00000KT P6SM SCT020 BKN080 
     BECMG 2412/2413 6SM HZ SCT080 BKN250
       
TAF MMZO 231700Z 2318/2418 00000KT P6SM SCT020 SCT210 
     FM232100 24010KT P6SM SCT020CB BKN210 
     TEMPO 2322/2402 2SM TSRA BKN015CB OVC070 
     FM240200 34006KT 5SM RA SCT020CB OVC080 
     FM240600 00000KT P6SM SCT020 BKN080 BKN200 
     PROB40 2410/2414 5SM RA SCT020CB BKN080
       
TAF MMBT 231621Z 2318/2418 00000KT 6SM HZ SCT020 BKN220 
     FM232100 18012KT 6SM HZ SCT030CB SCT100 BKN220 
     TEMPO 2322/2401 VC SH 
     FM240300 00000KT P6SM SCT100 BKN220 
     BECMG 2412/2413 6SM HZ BKN220
       
TAF MMVA 231712Z 2318/2418 09008KT 6SM HZ SCT020 
     FM232100 12012KT 6SM HZ SCT020CB SCT080 
     TEMPO 2323/2403 5SM TSRA BKN020CB 
     FM240300 07008KT 6SM HZ SCT020 BKN080 
     BECMG 2405/2406 12006KT 
     FM241000 12006KT 5SM HZ BKN015 
     FM241500 12010KT 6SM HZ SCT015
       
TAF MMUN 232326Z 2400/2506 04005KT P6SM SCT015 BKN280 TX32/2421Z TN26/2412Z 
     BECMG 2402/2403 09005KT 
     FM241200 12010KT 6SM HZ BKN015 BKN250 
     FM241800 12012KT P6SM BKN015CB BKN080 
     PROB40 2418/2423 5SM TSRA 
     FM250100 12008KT P6SM SCT015 SCT080 BKN250
       
TAF AMD MMCM 240137Z 2402/2418 12008G18KT 3SM TSRA OVC015CB 
     FM240200 12010KT 5SM -RA BKN015CB OVC080 
     FM240400 15005KT 6SM HZ BKN020 BKN080 
     FM241200 12010KT 6SM HZ SCT020 BKN080 
     BECMG 2417/2418 BKN020CB BKN080
       
TAF AMD MMCE 232229Z 2322/2418 36010KT 6SM HZ SCT015CB SCT090 BKN300 
     TEMPO 2323/2403 5SM TSRA BKN015CB 
     FM240500 12008KT P6SM SCT015 BKN090 
     FM241200 12012KT 6SM HZ SCT015 SCT090
       
TAF AMD MMCN 231855Z 2319/2418 11015KT P6SM BKN030 
     FM232100 24015KT P6SM SCT030 BKN220 
     BECMG 2401/2402 19006KT 
     FM240800 12005KT P6SM SCT020CB BKN100 
     PROB40 2410/2414 6SM TSRA BKN020CB 
     FM241400 00000KT P6SM SCT020 BKN100
       
TAF MMCV 231724Z 2318/2418 17018KT P6SM SCT020 SCT220 
     BECMG 2320/2321 17020KT 
     FM240200 16015KT P6SM SCT220 
     BECMG 2405/2406 16012KT 
     FM241200 16015KT 6SM HZ SCT015
       
TAF MMCZ 232326Z 2400/2506 06010KT P6SM SCT015 BKN250 
     BECMG 2402/2403 08006KT 
     FM240600 09010KT P6SM SCT015CB BKN080 
     TEMPO 2406/2410 5SM TSRA BKN015 
     FM241200 12010KT 6SM HZ SCT015 BKN250 
     FM241800 09012KT P6SM SCT015CB BKN080 
     PROB40 2419/2423 5SM TSRA BKN015CB 
     FM250100 09008KT P6SM SCT015 SCT080 BKN250
       
TAF MMCB 231621Z 2318/2418 21005KT P6SM BKN015 BKN100 
     FM232100 19010KT P6SM SCT020CB BKN100 
     TEMPO 2323/2403 6SM -TSRA BKN020CB 
     FM240400 00000KT P6SM BKN100 BKN220 
     FM241200 00000KT 6SM HZ SCT015 BKN100
       
TAF MMCL 231717Z 2318/2418 01010KT P6SM SCT020 BKN100 BKN230 
     FM240000 24010KT P6SM SCT020CB BKN100 BKN230 
     TEMPO 2400/2404 5SM TSRA BKN020CB OVC100 
     FM240400 24005KT P6SM SCT020 BKN100 
     PROB40 2408/2412 5SM RA 
     FM241600 24006KT P6SM SCT100 BKN230
       
TAF MMLO 231637Z 2318/2418 09005KT P6SM SCT030 SCT220 
     FM232100 07012KT P6SM SCT030CB BKN100 
     TEMPO 2322/2402 6SM -RA 
     FM240200 00000KT P6SM SCT100 SCT220 
     BECMG 2412/2413 6SM HZ SCT220
       
TAF MMAN 231738Z 2318/2418 15010KT P6SM SCT030 
     PROB40 2400/2404 5SM RA SCT030CB BKN200 
     FM240400 12006KT P6SM SCT200 
     TEMPO 2410/2414 5SM HZ BKN015
       
TAF MMGL 232330Z 2400/2506 00000KT 6SM HZ SCT020 TX27/2421Z TN17/2412Z 
     TEMPO 2400/2404 5SM RA VC TS SCT020CB 
     FM240400 24006KT P6SM SCT020CB BKN080 BKN300 
     PROB40 2406/2410 5SM TSRA BKN020CB OVC080 
     FM241000 00000KT P6SM SCT020 BKN300 
     FM241700 24010KT P6SM SCT300 
     BECMG 2421/2422 BKN030CB BKN080 BKN300 
     FM250300 00000KT 6SM HZ SCT030 BKN300
       
TAF MMDO 231653Z 2318/2418 07005KT P6SM SCT020 SCT220 
     FM232100 08015KT P6SM BKN025CB BKN090 
     TEMPO 2322/2402 4SM TSRA 
     FM240300 07006KT 6SM -TSRA BKN025CB OVC090 
     FM240600 00000KT P6SM SCT025 BKN090 
     BECMG 2412/2413 SCT090
       
TAF MMTG 231727Z 2318/2418 09008KT P6SM SCT015 SCT300 
     FM232100 34010KT P6SM BKN020CB BKN300 
     TEMPO 2322/2402 5SM TSRA 
     FM240200 34005KT P6SM SCT020 BKN300 
     TEMPO 2411/2415 5SM HZ BKN015
       
TAF MMTJ 232310Z 2400/2506 30012KT P6SM SCT100 SCT220 TX26/2422Z TN18/2413Z 
     BECMG 2402/2403 30006KT SCT220 
     FM240800 00000KT 6SM HZ SCT015 
     TEMPO 2410/2414 3SM BR HZ BKN010 
     FM241500 25005KT 6SM HZ SCT015 BKN220 
     BECMG 2420/2421 27012KT BKN220 
     FM250100 27006KT P6SM SCT220
       
TAF AMD MMMM 240130Z 2401/2506 20005KT 2 1/2SM -RA BKN030CB BKN100 
     BECMG 2403/2404 5SM -RA 
     FM240600 00000KT 6SM -RA BKN030 BKN100 
     FM241000 00000KT 5SM HZ BKN020 BKN080 
     TEMPO 2411/2414 3SM -RA BR 
     FM241600 00000KT 6SM HZ SCT020 BKN080 
     FM242000 18010KT 6SM HZ VC SH BKN030CB BKN080 
     PROB40 2421/2501 3SM TSRA 
     FM250200 16008KT 5SM -TSRA BKN030CB OVC080
       
TAF MMTM 231635Z 2318/2418 20010KT P6SM SCT010 
     TEMPO 2320/2324 BKN015 
     FM240200 14006KT P6SM SCT015 
     FM241800 12010KT P6SM SCT020
       
TAF MMVR 231635Z 2318/2418 06010KT 6SM HZ SCT015 SCT080 BKN250 TX32/2320Z TN24/2412Z 
     FM240200 34005KT P6SM SCT015 BKN250 
     TEMPO 2411/2415 BKN015
       
TAF MMHO 231717Z 2318/2418 11006KT P6SM BKN080 BKN200 
     FM232100 24010KT P6SM SCT030CB BKN080 BKN200 
     TEMPO 2322/2402 5SM RA VC TS BKN030CB BKN080 OVC200 
     FM240200 24006KT P6SM BKN080 BKN200 
     FM241600 22010KT P6SM SCT080 BKN200
       
TAF MMGM 231653Z 2318/2418 21005KT P6SM BKN100 
     FM232100 23012KT P6SM SCT020 BKN100 
     BECMG 2401/2402 00000KT 
     FM240800 00000KT P6SM SCT020CB BKN100 
     FM241400 00000KT P6SM BKN100
       
TAF MMAA 232315Z 2400/2506 00000KT P6SM SCT015CB BKN090 OVC300 TX32/2419Z TN26/2412Z 
     TEMPO 2400/2404 5SM RA VC TS 
     FM240400 00000KT P6SM SCT015 BKN090 
     TEMPO 2410/2414 5SM TSRA SCT015CB OVC090 
     FM241800 14010KT P6SM BKN090 BKN300 
     PROB40 2423/2503 5SM RA BKN015 BKN090 OVC300
       
TAF MMZC 232330Z 2400/2506 09010G20KT P6SM SCT040 SCT200 TX26/2421Z TN13/2412Z 
     FM240400 14006KT P6SM SCT030 SCT240 
     FM241900 08010KT P6SM SCT030 BKN240 
     FM250200 12006KT P6SM SCT240
       
TAF MMRX 231724Z 2318/2418 18015KT P6SM SCT100 
     BECMG 2320/2321 16015G25KT SCT040 
     FM240200 14010KT P6SM SCT220 
     BECMG 2405/2406 14008KT 
     FM241200 14010KT 6SM HZ BKN015 
     FM241500 14015KT P6SM SCT020
       
TAF MMLP 231717Z 2318/2418 27006KT P6SM SKC 
     FM232200 26010KT P6SM SCT030 BKN220 
     PROB40 2400/2404 5SM RA SCT030CB BKN100 BKN220 
     FM240400 22005KT P6SM SCT100 BKN220 
     FM241700 27010KT P6SM SCT220
       
TAF MMMY 232329Z 2400/2506 14008KT P6SM SCT040 TX38/2422Z TN23/2413Z 
     BECMG 2402/2403 14005KT SCT250 
     FM241000 12005KT 5SM HZ BKN015 
     FM241500 12006KT 6SM HZ SCT020 
     FM242000 14015KT P6SM SCT040 
     BECMG 2502/2503 12008KT SCT250
       
TAF MMCU 231738Z 2318/2418 09010KT P6SM BKN030 BKN080 OVC200 
     TEMPO 2321/2401 5SM TSRA BKN030CB OVC080 
     FM240100 12010KT 5SM RA BKN030 OVC080 
     FM240600 00000KT P6SM SCT030 BKN080 
     FM241700 14010KT P6SM SCT030
       
TAF MMMZ 232310Z 2400/2506 26008KT P6SM SCT020 BKN230 TX33/2422Z TN26/2413Z 
     TEMPO 2400/2403 VC SH 
     FM240400 32005KT P6SM SCT020CB BKN090 
     TEMPO 2406/2410 6SM TSRA BKN020CB 
     FM241300 04005KT P6SM SCT020 SCT090 
     FM242000 24012KT P6SM SCT020 BKN230 
     FM250100 27008KT P6SM SCT020CB BKN090 
     PROB40 2502/2506 5SM TSRA BKN020CB
       
TAF AMD MMML 231950Z 2320/2418 15015KT 4SM BLDU SCT100 SCT200 
     FM232300 15012KT 6SM HZ BKN120 BKN200 
     TEMPO 2323/2402 3SM BLDU 
     FM240200 26008KT P6SM SCT200 
     BECMG 2417/2418 24010KT
       
TAF MMMA 231724Z 2318/2418 16015KT 6SM HZ SCT020 
     BECMG 2320/2321 16015G25KT 
     FM240200 16008KT P6SM SCT220 
     FM241200 16010KT 6SM HZ BKN015 
     FM241500 16015KT 6SM HZ SCT015
       
TAF MMPB 231621Z 2318/2418 16006KT 6SM HZ SCT020 BKN220 
     FM232100 16015KT P6SM VC SH BKN020CB BKN080 
     TEMPO 2322/2402 3SM TSRA 
     FM240300 32005KT P6SM -RA BKN020 BKN080 
     FM240600 00000KT P6SM SCT020 BKN080 
     TEMPO 2411/2415 3SM BR HZ BKN015
       
TAF AMD MMCP 240139Z 2402/2418 18008KT 6SM -RA SCT070 BKN120 
     FM240300 18006KT P6SM BKN120 
     FM241200 16008KT 6SM HZ SCT030 SCT100
       
TAF MMQT 231637Z 2318/2418 08006KT 5SM HZ BKN020 BKN220 
     FM232000 05012KT 6SM HZ SCT020 SCT100 BKN220 
     FM240200 00000KT P6SM SCT100 BKN220 
     BECMG 2412/2413 5SM HZ SCT015 BKN220
       
TAF MMZH 231621Z 2318/2418 24006KT P6SM SCT020 BKN080 
     FM232100 24012KT P6SM SCT020CB BKN080 
     TEMPO 2322/2402 6SM -TSRA BKN020CB 
     FM240300 00000KT P6SM SCT020 BKN080 
     BECMG 2412/2413 6SM HZ SCT080 BKN250
       
TAF MMAS 231637Z 2318/2418 07005KT P6SM SCT030 
     FM232100 09015KT P6SM SCT030CB SCT220 
     FM240100 00000KT P6SM SCT220 
     BECMG 2412/2413 6SM HZ SCT030
       
TAF MMTO 232315Z 2400/2506 00000KT 3SM -RA HZ BKN015CB OVC070 TX21/2419Z TN08/2412Z 
     FM240300 00000KT 4SM HZ SCT015 BKN070 BKN200 
     TEMPO 2410/2414 2SM BR BKN010 
     FM241600 14006KT 5SM HZ SCT015 SCT200 
     FM241900 14010KT P6SM BKN015 BKN070 BKN200 
     TEMPO 2421/2424 4SM TSRA BKN015CB OVC070 
     FM250200 00000KT 5SM HZ SCT015 BKN070
       
TAF MMMX 232315Z 2400/2506 22008KT 5SM -RA BKN020CB OVC080 TX23/2421Z TN14/2412Z 
     FM240400 00000KT P6SM SCT020 BKN200 
     FM241900 07010KT P6SM BKN020 BKN200 
     TEMPO 2421/2424 5SM TSRA BKN020CB 
     FM250300 12005KT P6SM SCT020 BKN090
       
TAF MMPR 232330Z 2400/2506 22006KT P6SM SCT025CB SCT080 BKN200 TX32/2420Z TN24/2412Z 
     TEMPO 2400/2404 5SM RA VC TS 
     FM240400 00000KT 5SM -RA SCT020CB BKN100 BKN220 
     FM240600 00000KT P6SM SCT100 BKN220 
     FM241900 30010KT P6SM SCT220 
     BECMG 2421/2422 SCT020 BKN100 BKN220 
     PROB40 2500/2504 5SM RA SCT020CB BKN100 OVC220
       
TAF MMMD 232326Z 2400/2506 03010KT 6SM HZ SCT020CB OVC300 TX34/2422Z TN25/2412Z 
     TEMPO 2400/2403 6SM -TSRA BKN020CB 
     FM240400 04008KT P6SM SCT020 BKN300 
     BECMG 2405/2406 09006KT BKN300 
     FM241200 12010KT 6SM HZ BKN020 BKN300 
     FM242000 03012KT P6SM BKN025CB BKN300 
     PROB40 2422/2502 5SM TSRA 
     FM250300 04005KT P6SM SCT025 BKN090
       
TAF MMPN 231637Z 2318/2418 15006KT P6SM SCT030 BKN280 
     FM232000 19012KT P6SM VC SH BKN030CB BKN090 
     TEMPO 2321/2401 3SM TSRA 
     FM240200 19005KT 6SM -RA SCT030CB BKN090 
     FM240600 00000KT P6SM SCT090 BKN280 
     BECMG 2412/2413 6SM HZ
       
TAF MMLT 231653Z 2318/2418 00000KT P6SM SCT100 BKN240 
     FM232000 17012KT P6SM SCT040 BKN240 
     BECMG 2401/2402 00000KT BKN240 
     FM241600 19005KT P6SM SCT240
       
TAF MMSD 231653Z 2318/2418 13005KT P6SM SCT260 
     BECMG 2320/2321 13015KT 
     FM240200 29005KT P6SM SKC 
     BECMG 2412/2413 34005KT
       
TAF MMMT 231712Z 2318/2418 01010KT P6SM SCT020 
     BECMG 2320/2321 01015KT 
     FM240100 36008KT P6SM SCT020 BKN300 
     PROB40 2406/2410 6SM -TSRA BKN020CB 
     FM241200 34006KT 6SM HZ SCT015 BKN080
       
TAF MMPG 231724Z 2318/2418 12010KT P6SM SCT030 SCT250 
     BECMG 2320/2321 12015KT 
     FM240200 12006KT P6SM SCT250 
     FM241200 12010KT 6SM HZ SCT250
       
TAF MMIO 231738Z 2318/2418 00000KT P6SM SKC 
     FM232100 34010KT P6SM SCT030 
     PROB40 2400/2404 5SM RA VC TS SCT030CB BKN200 
     FM240400 00000KT P6SM SCT200 
     FM241700 34010KT P6SM SKC
       
TAF MMZO 231700Z 2318/2418 00000KT P6SM SCT020 SCT210 
     FM232100 24010KT P6SM SCT020CB BKN210 
     TEMPO 2322/2402 2SM TSRA BKN015CB OVC070 
     FM240200 34006KT 5SM RA SCT020CB OVC080 
     FM240600 00000KT P6SM SCT020 BKN080 BKN200 
     PROB40 2410/2414 5SM RA SCT020CB BKN080
       
TAF MMSP 232330Z 2400/2506 06013KT P6SM SCT025 TX26/2421Z TN13/2412Z 
     FM240300 10006KT P6SM SCT020 
     TEMPO 2410/2414 BKN015 
     FM241900 08015KT P6SM SCT020 
     BECMG 2420/2421 BKN020 
     TEMPO 2423/2503 5SM RA
       
TAF MMPS 231621Z 2318/2418 06008KT 6SM HZ SCT020 BKN220 
     FM232100 12012KT P6SM SCT020CB BKN080 
     TEMPO 2322/2402 VC SH 
     FM240300 00000KT P6SM SCT080 BKN220 
     BECMG 2412/2413 6SM HZ BKN220
       
TAF MMNL 231724Z 2318/2418 14010KT P6SM SCT250 
     BECMG 2320/2321 14015KT 
     FM240200 14008KT P6SM SCT250 
     FM241200 14001KT 6SM HZ SCT015 SCT250
       
TAF MMTP 232326Z 2400/2506 28006KT P6SM SCT040CB SCT090 BKN250 
     TEMPO 2401/2405 5SM TSRA BKN030CB 
     FM240600 00000KT P6SM SCT100 BKN250 
     FM241800 24006KT P6SM SCT030 BKN250 
     FM242100 24012KT P6SM SCT030CB BKN250 
     PROB40 2423/2503 VC SH 
     FM250400 29005KT P6SM SCT030 BKN100
       
TAF AMD MMEP 232336Z 2400/2418 30004KT 1/2SM +RA OVC015CB 
     FM240000 32006KT 3SM TSRA BKN015CB OVC070 
     FM240200 36006KT 5SM -TSRA 
     FM240600 00000KT 6SM HZ SCT015 BKN080 
     FM241000 00000KT 3SM BR HZ SCT015 BKN250 
     FM241500 00000KT 6SM HZ SCT020 BKN250
       
TAF MMTC 231738Z 2318/2418 00000KT P6SM SCT025 SCT200 
     FM232200 06010KT P6SM SCT030CB BKN200 
     TEMPO 2323/2403 5SM RA VC TS 
     FM240300 06006KT P6SM SCT030 BKN200 
     FM241700 06010KT P6SM SCT200
       
TAF MMLM 231653Z 2318/2418 13010KT P6SM SCT030 SCT100 BKN220 
     FM232100 24012KT P6SM SCT030 BKN220 
     FM240200 16006KT P6SM SCT030CB BKN100 
     PROB40 2404/2408 6SM TSRA BKN030CB 
     FM241000 00000KT P6SM SCT100 BKN220
       
TAF AMD MMOX 240133Z 2402/2418 15006KT 3SM -RA BKN010CB OVC080 
     FM240300 00000KT 5SM -RA BKN015 OVC080 
     FM240600 00000KT 6SM HZ BKN020 BKN080 
     FM241600 16005KT 6SM HZ SCT020 BKN080